Time;durP1;ratioP1;P1;durP2;ratioP2;P2;SDS_P1;SDS_P2;PMS_P1;PMS_P2;Temp;Humidity;BMP_temperature;BMP_pressure;BME280_temperature;BME280_humidity;BME280_pressure;Samples;Min_cycle;Max_cycle;Signal;HPM_P1;HPM_P2
2021/10/04 00:00:03;;;;;;;13.63;3.33;;;;;;;-145.18;0.00;102943.50;5073842;28;20107;-71
2021/10/04 00:02:29;;;;;;;9.50;3.40;;;;;;;-145.18;0.00;102943.50;5076016;28;20048;-71
2021/10/04 00:04:54;;;;;;;7.83;3.03;;;;;;;-145.18;0.00;102943.50;5071990;28;20168;-71
2021/10/04 00:07:21;;;;;;;7.27;3.37;;;;;;;-145.18;0.00;102943.50;5073747;28;20119;-71
2021/10/04 00:09:47;;;;;;;6.87;3.00;;;;;;;-145.18;0.00;102943.50;5072280;28;20023;-71
2021/10/04 00:12:13;;;;;;;6.57;3.07;;;;;;;-145.18;0.00;102943.50;5075332;28;20024;-71
2021/10/04 00:14:38;;;;;;;9.17;3.27;;;;;;;-145.18;0.00;102943.50;5064358;28;20029;-71
2021/10/04 00:17:04;;;;;;;9.90;3.50;;;;;;;-145.18;0.00;102943.50;5070444;28;20170;-71
2021/10/04 00:19:30;;;;;;;8.90;3.10;;;;;;;-145.18;0.00;102943.50;5076758;28;20229;-71
2021/10/04 00:21:56;;;;;;;10.20;3.00;;;;;;;-145.18;0.00;102943.50;5079279;28;20030;-71
2021/10/04 00:24:21;;;;;;;8.07;3.43;;;;;;;-145.18;0.00;102943.50;5070369;28;20028;-71
2021/10/04 00:26:47;;;;;;;13.27;3.67;;;;;;;-145.18;0.00;102943.50;5077790;28;20276;-71
2021/10/04 00:29:13;;;;;;;11.00;3.67;;;;;;;-145.18;0.00;102943.50;5080930;28;20027;-71
2021/10/04 00:31:39;;;;;;;8.43;3.33;;;;;;;-145.18;0.00;102943.50;5081219;28;20106;-71
2021/10/04 00:34:04;;;;;;;10.07;3.33;;;;;;;-145.18;0.00;102943.50;5078780;28;20028;-71
2021/10/04 00:36:30;;;;;;;11.87;3.93;;;;;;;-145.18;0.00;102943.50;5076007;28;20038;-71
2021/10/04 00:38:55;;;;;;;9.53;3.73;;;;;;;-145.18;0.00;102943.50;5061989;28;20150;-71
2021/10/04 00:41:21;;;;;;;10.07;3.77;;;;;;;-145.18;0.00;102943.50;5073089;28;20032;-71
2021/10/04 00:43:47;;;;;;;13.67;4.80;;;;;;;-145.18;0.00;102943.50;5068040;28;20040;-71
2021/10/04 00:46:12;;;;;;;12.00;5.03;;;;;;;-145.18;0.00;102943.50;5076715;28;20181;-71
2021/10/04 00:48:38;;;;;;;11.07;4.90;;;;;;;-145.18;0.00;102943.50;5074683;28;20032;-71
2021/10/04 00:51:04;;;;;;;12.83;4.40;;;;;;;-145.18;0.00;102943.50;5069203;28;20315;-71
2021/10/04 00:53:29;;;;;;;12.50;5.07;;;;;;;-145.18;0.00;102943.50;5072842;28;20043;-71
2021/10/04 00:55:55;;;;;;;14.03;5.63;;;;;;;-145.18;0.00;102943.50;5077808;28;20020;-71
2021/10/04 00:58:21;;;;;;;13.87;5.60;;;;;;;-145.18;0.00;102943.50;5077473;28;20333;-71
2021/10/04 01:00:46;;;;;;;12.33;5.97;;;;;;;-145.18;0.00;102943.50;5076879;28;20576;-68
2021/10/04 01:05:39;;;;;;;15.80;6.47;;;;;;;-145.18;0.00;102943.50;5097202;27;20422;-67
2021/10/04 01:08:05;;;;;;;13.13;5.50;;;;;;;-145.18;0.00;102943.50;5099024;28;20043;-67
2021/10/04 01:10:31;;;;;;;15.70;6.10;;;;;;;-145.18;0.00;102943.50;5105258;27;20028;-68
2021/10/04 01:12:56;;;;;;;15.47;5.90;;;;;;;-145.18;0.00;102943.50;5105449;27;20110;-67
2021/10/04 01:15:22;;;;;;;13.23;6.10;;;;;;;-145.18;0.00;102943.50;5100958;27;20035;-67
2021/10/04 01:17:49;;;;;;;14.53;5.63;;;;;;;-145.18;0.00;102943.50;5100095;28;20378;-68
2021/10/04 01:20:25;;;;;;;16.40;6.20;;;;;;;-145.18;0.00;102943.50;5092159;28;20160;-68
2021/10/04 01:22:52;;;;;;;11.97;5.47;;;;;;;-145.18;0.00;102943.50;5100642;27;20038;-68
2021/10/04 01:25:19;;;;;;;18.57;6.27;;;;;;;-145.18;0.00;102943.50;5099462;28;20276;-67
2021/10/04 01:27:46;;;;;;;15.20;5.90;;;;;;;-145.18;0.00;102943.50;5099854;28;20031;-67
2021/10/04 01:30:13;;;;;;;15.47;6.63;;;;;;;-145.18;0.00;102943.50;5099424;28;20061;-68
2021/10/04 01:32:39;;;;;;;17.07;6.37;;;;;;;-145.18;0.00;102943.50;5107648;27;20601;-67
2021/10/04 01:35:06;;;;;;;13.73;6.17;;;;;;;-145.18;0.00;102943.50;5100967;27;20419;-68
2021/10/04 01:37:32;;;;;;;13.33;5.97;;;;;;;-145.18;0.00;102943.50;5100145;28;20027;-68
2021/10/04 01:39:57;;;;;;;12.67;6.27;;;;;;;-145.18;0.00;102943.50;5098886;28;20286;-68
2021/10/04 01:42:23;;;;;;;14.77;6.23;;;;;;;-145.18;0.00;102943.50;5100155;28;20057;-67
2021/10/04 01:44:49;;;;;;;14.13;5.77;;;;;;;-145.18;0.00;102943.50;5099361;28;20115;-68
2021/10/04 01:47:15;;;;;;;15.67;5.73;;;;;;;-145.18;0.00;102943.50;5092834;28;20463;-67
2021/10/04 01:49:43;;;;;;;14.07;5.20;;;;;;;-145.18;0.00;102943.50;5101202;27;20050;-68
2021/10/04 01:52:09;;;;;;;16.50;5.47;;;;;;;-145.18;0.00;102943.50;5104126;27;20519;-67
2021/10/04 01:54:34;;;;;;;13.70;5.10;;;;;;;-145.18;0.00;102943.50;5099089;28;20039;-67
2021/10/04 01:57:00;;;;;;;11.73;5.03;;;;;;;-145.18;0.00;102943.50;5108019;27;20152;-67
2021/10/04 01:59:25;;;;;;;9.40;4.07;;;;;;;-145.18;0.00;102943.50;5099551;28;20062;-68
2021/10/04 02:01:51;;;;;;;11.33;4.50;;;;;;;-145.18;0.00;102943.50;5099577;28;20395;-68
2021/10/04 02:04:16;;;;;;;12.23;4.03;;;;;;;-145.18;0.00;102943.50;5087712;28;20086;-68
2021/10/04 02:06:42;;;;;;;7.57;3.37;;;;;;;-145.18;0.00;102943.50;5075985;28;20036;-68
2021/10/04 02:09:07;;;;;;;6.93;3.20;;;;;;;-145.18;0.00;102943.50;5080320;28;20043;-68
2021/10/04 02:11:33;;;;;;;7.23;3.00;;;;;;;-145.18;0.00;102943.50;5079524;28;20016;-68
2021/10/04 02:13:59;;;;;;;6.60;2.80;;;;;;;-145.18;0.00;102943.50;5069326;28;20178;-67
2021/10/04 02:16:24;;;;;;;8.00;3.03;;;;;;;-145.18;0.00;102943.50;5079327;28;20121;-69
2021/10/04 02:18:50;;;;;;;7.33;2.50;;;;;;;-145.18;0.00;102943.50;5072960;28;20088;-69
2021/10/04 02:21:15;;;;;;;6.10;2.90;;;;;;;-145.18;0.00;102943.50;5078864;28;20133;-68
2021/10/04 02:23:41;;;;;;;5.50;2.17;;;;;;;-145.18;0.00;102943.50;5084904;28;20114;-68
2021/10/04 02:26:06;;;;;;;4.93;2.43;;;;;;;-145.18;0.00;102943.50;5073895;28;20449;-68
2021/10/04 02:28:32;;;;;;;5.33;2.30;;;;;;;-145.18;0.00;102943.50;5078393;28;20047;-68
2021/10/04 02:30:58;;;;;;;5.63;2.30;;;;;;;-145.18;0.00;102943.50;5087053;28;20102;-69
2021/10/04 02:33:23;;;;;;;7.27;2.30;;;;;;;-145.18;0.00;102943.50;5073535;28;20024;-68
2021/10/04 02:35:49;;;;;;;6.07;2.10;;;;;;;-145.18;0.00;102943.50;5079811;28;20032;-69
2021/10/04 02:38:14;;;;;;;5.20;1.97;;;;;;;-145.18;0.00;102943.50;5075742;28;20598;-68
2021/10/04 02:40:41;;;;;;;4.17;2.07;;;;;;;-145.18;0.00;102943.50;5082660;28;20016;-69
2021/10/04 02:43:08;;;;;;;4.43;1.80;;;;;;;-145.18;0.00;102943.50;5078151;28;20024;-69
2021/10/04 02:45:33;;;;;;;5.20;1.77;;;;;;;-145.18;0.00;102943.50;5071526;28;20310;-69
2021/10/04 02:48:01;;;;;;;7.23;2.00;;;;;;;-145.18;0.00;102943.50;5075699;28;20298;-69
2021/10/04 02:50:27;;;;;;;6.37;1.83;;;;;;;-145.18;0.00;102943.50;5070203;28;20024;-69
2021/10/04 02:52:53;;;;;;;9.47;2.20;;;;;;;-145.18;0.00;102943.50;5085960;28;20180;-69
2021/10/04 02:55:22;;;;;;;5.57;1.70;;;;;;;-145.18;0.00;102943.50;5069816;28;20028;-69
2021/10/04 02:57:48;;;;;;;5.00;1.63;;;;;;;-145.18;0.00;102943.50;5068992;28;20220;-68
2021/10/04 03:00:15;;;;;;;4.10;1.90;;;;;;;-145.18;0.00;102943.50;5073270;28;20016;-70
2021/10/04 03:02:41;;;;;;;5.93;1.80;;;;;;;-145.18;0.00;102943.50;5075491;28;20403;-70
2021/10/04 03:05:07;;;;;;;4.70;2.37;;;;;;;-145.18;0.00;102943.50;5080944;28;20047;-70
2021/10/04 03:07:33;;;;;;;5.23;1.73;;;;;;;-145.18;0.00;102943.50;5074429;28;20047;-70
2021/10/04 03:09:59;;;;;;;3.53;1.40;;;;;;;-145.18;0.00;102943.50;5077710;28;20106;-70
2021/10/04 03:12:24;;;;;;;3.67;1.50;;;;;;;-145.18;0.00;102943.50;5071840;28;20422;-70
2021/10/04 03:14:50;;;;;;;5.23;1.80;;;;;;;-145.18;0.00;102943.50;5078216;28;20024;-70
2021/10/04 03:17:15;;;;;;;6.10;2.00;;;;;;;-145.18;0.00;102943.50;5076635;28;20130;-69
2021/10/04 03:19:41;;;;;;;5.07;2.20;;;;;;;-145.18;0.00;102943.50;5078077;28;20256;-70
2021/10/04 03:22:07;;;;;;;3.43;1.30;;;;;;;-145.18;0.00;102943.50;5080807;28;20020;-70
2021/10/04 03:24:32;;;;;;;5.77;1.50;;;;;;;-145.18;0.00;102943.50;5078341;28;20024;-70
2021/10/04 03:26:58;;;;;;;5.23;1.57;;;;;;;-145.18;0.00;102943.50;5076913;28;20028;-70
2021/10/04 03:29:24;;;;;;;3.27;1.10;;;;;;;-145.18;0.00;102943.50;5074723;28;20058;-70
2021/10/04 03:31:52;;;;;;;3.10;1.20;;;;;;;-145.18;0.00;102943.50;5071439;28;20115;-70
2021/10/04 03:34:18;;;;;;;4.23;1.43;;;;;;;-145.18;0.00;102943.50;5082255;28;20016;-69
2021/10/04 03:36:44;;;;;;;3.70;1.37;;;;;;;-145.18;0.00;102943.50;5079765;28;20740;-69
2021/10/04 03:39:10;;;;;;;3.13;1.27;;;;;;;-145.18;0.00;102943.50;5075762;28;20028;-69
2021/10/04 03:41:36;;;;;;;4.17;1.50;;;;;;;-145.18;0.00;102943.50;5073788;28;20313;-71
2021/10/04 03:44:02;;;;;;;4.70;1.53;;;;;;;-145.18;0.00;102943.50;5076353;28;20027;-70
2021/10/04 03:46:27;;;;;;;4.40;1.77;;;;;;;-145.18;0.00;102943.50;5075150;28;20036;-70
2021/10/04 03:48:52;;;;;;;11.43;1.80;;;;;;;-145.18;0.00;102943.50;5090209;28;20036;-70
2021/10/04 03:51:18;;;;;;;8.33;1.90;;;;;;;-145.18;0.00;102943.50;5069074;28;20025;-70
2021/10/04 03:53:44;;;;;;;4.23;1.43;;;;;;;-145.18;0.00;102943.50;5076335;28;20024;-70
2021/10/04 03:56:09;;;;;;;4.83;1.40;;;;;;;-145.18;0.00;102943.50;5077149;28;20265;-69
2021/10/04 03:58:35;;;;;;;3.43;1.30;;;;;;;-145.18;0.00;102943.50;5079514;28;20201;-69
2021/10/04 04:01:01;;;;;;;3.00;1.40;;;;;;;-145.18;0.00;102943.50;5076343;28;20256;-69
2021/10/04 04:03:26;;;;;;;6.30;1.30;;;;;;;-145.18;0.00;102943.50;5071098;28;20380;-69
2021/10/04 04:05:52;;;;;;;3.73;1.47;;;;;;;-145.18;0.00;102943.50;5075518;28;20252;-70
2021/10/04 04:08:17;;;;;;;4.10;1.70;;;;;;;-145.18;0.00;102943.50;5081047;28;20119;-70
2021/10/04 04:10:43;;;;;;;4.03;1.40;;;;;;;-145.18;0.00;102943.50;5072545;28;20019;-70
2021/10/04 04:13:08;;;;;;;5.23;1.60;;;;;;;-145.18;0.00;102943.50;5081127;28;20028;-71
2021/10/04 04:15:34;;;;;;;4.90;1.57;;;;;;;-145.18;0.00;102943.50;5080276;28;20050;-70
2021/10/04 04:18:00;;;;;;;5.93;1.47;;;;;;;-145.18;0.00;102943.50;5082415;28;20047;-69
2021/10/04 04:20:26;;;;;;;4.20;1.30;;;;;;;-145.18;0.00;102943.50;5077776;28;20024;-69
2021/10/04 04:22:51;;;;;;;4.37;1.40;;;;;;;-145.18;0.00;102943.50;5095130;28;20028;-69
2021/10/04 04:25:17;;;;;;;5.13;1.70;;;;;;;-145.18;0.00;102943.50;5079993;28;20031;-69
2021/10/04 04:27:43;;;;;;;6.43;1.60;;;;;;;-145.18;0.00;102943.50;5088858;28;20112;-69
2021/10/04 04:30:11;;;;;;;5.20;1.70;;;;;;;-145.18;0.00;102943.50;5078818;28;20108;-69
2021/10/04 04:32:37;;;;;;;5.57;1.60;;;;;;;-145.18;0.00;102943.50;5081264;28;20399;-69
2021/10/04 04:35:05;;;;;;;8.10;2.80;;;;;;;-145.18;0.00;102943.50;5081206;28;20480;-69
2021/10/04 04:37:35;;;;;;;4.03;1.57;;;;;;;-145.18;0.00;102943.50;5072435;28;20024;-69
2021/10/04 04:40:03;;;;;;;3.40;1.43;;;;;;;-145.18;0.00;102943.50;5078670;28;20079;-70
2021/10/04 04:42:28;;;;;;;5.23;1.70;;;;;;;-145.18;0.00;102943.50;5090211;28;20020;-69
2021/10/04 04:44:54;;;;;;;4.07;1.40;;;;;;;-145.18;0.00;102943.50;5083782;28;20031;-69
2021/10/04 04:47:19;;;;;;;6.07;1.60;;;;;;;-145.18;0.00;102943.50;5080845;28;20669;-69
2021/10/04 04:49:45;;;;;;;3.40;1.80;;;;;;;-145.18;0.00;102943.50;5073198;28;20391;-69
2021/10/04 04:52:11;;;;;;;5.50;1.70;;;;;;;-145.18;0.00;102943.50;5083896;28;20513;-69
2021/10/04 04:54:36;;;;;;;5.60;1.50;;;;;;;-145.18;0.00;102943.50;5076857;28;20293;-69
2021/10/04 04:57:03;;;;;;;4.90;1.90;;;;;;;-145.18;0.00;102943.50;5072832;28;20441;-69
2021/10/04 04:59:29;;;;;;;4.90;1.80;;;;;;;-145.18;0.00;102943.50;5074660;28;20097;-69
2021/10/04 05:01:55;;;;;;;3.33;1.30;;;;;;;-145.18;0.00;102943.50;5073022;28;20294;-69
2021/10/04 05:04:20;;;;;;;7.07;1.63;;;;;;;-145.18;0.00;102943.50;5074184;28;20032;-69
2021/10/04 05:06:46;;;;;;;6.40;1.60;;;;;;;-145.18;0.00;102943.50;5077000;28;20076;-69
2021/10/04 05:09:12;;;;;;;9.13;2.20;;;;;;;-145.18;0.00;102943.50;5082520;28;20038;-69
2021/10/04 05:11:37;;;;;;;3.60;1.90;;;;;;;-145.18;0.00;102943.50;5078769;28;20070;-69
2021/10/04 05:14:03;;;;;;;5.43;1.90;;;;;;;-145.18;0.00;102943.50;5077539;28;20059;-69
2021/10/04 05:16:29;;;;;;;6.40;2.30;;;;;;;-145.18;0.00;102943.50;5076509;28;20596;-69
2021/10/04 05:18:54;;;;;;;3.80;1.87;;;;;;;-145.18;0.00;102943.50;5084532;28;20027;-69
2021/10/04 05:21:20;;;;;;;4.23;1.97;;;;;;;-145.18;0.00;102943.50;5086868;28;20024;-69
2021/10/04 05:23:49;;;;;;;5.23;2.30;;;;;;;-145.18;0.00;102943.50;5069907;28;20036;-69
2021/10/04 05:26:14;;;;;;;7.73;1.87;;;;;;;-145.18;0.00;102943.50;5087015;28;20114;-69
2021/10/04 05:28:40;;;;;;;5.67;2.00;;;;;;;-145.18;0.00;102943.50;5079050;28;20630;-69
2021/10/04 05:31:05;;;;;;;5.73;2.53;;;;;;;-145.18;0.00;102943.50;5076039;28;20094;-69
2021/10/04 05:33:31;;;;;;;6.70;2.30;;;;;;;-145.18;0.00;102943.50;5074397;28;20073;-69
2021/10/04 05:35:57;;;;;;;6.83;2.40;;;;;;;-145.18;0.00;102943.50;5072216;28;20194;-69
2021/10/04 05:38:23;;;;;;;4.30;2.07;;;;;;;-145.18;0.00;102943.50;5072167;28;20288;-69
2021/10/04 05:40:49;;;;;;;7.07;1.93;;;;;;;-145.18;0.00;102943.50;5075734;28;20580;-70
2021/10/04 05:43:15;;;;;;;4.23;1.83;;;;;;;-145.18;0.00;102943.50;5073944;28;20255;-70
2021/10/04 05:45:41;;;;;;;4.80;2.10;;;;;;;-145.18;0.00;102943.50;5079630;28;20628;-70
2021/10/04 05:48:07;;;;;;;8.90;2.43;;;;;;;-145.18;0.00;102943.50;5080728;28;20070;-70
2021/10/04 05:50:32;;;;;;;6.47;2.30;;;;;;;-145.18;0.00;102943.50;5084500;28;20028;-70
2021/10/04 05:52:58;;;;;;;7.17;2.27;;;;;;;-145.18;0.00;102943.50;5079275;28;20468;-70
2021/10/04 05:55:23;;;;;;;5.47;2.10;;;;;;;-145.18;0.00;102943.50;5079518;28;20244;-70
2021/10/04 05:57:49;;;;;;;5.83;2.77;;;;;;;-145.18;0.00;102943.50;5079454;28;20020;-70
2021/10/04 06:00:15;;;;;;;8.73;2.17;;;;;;;-145.18;0.00;102943.50;5079476;28;20043;-70
2021/10/04 06:02:41;;;;;;;4.67;2.00;;;;;;;-145.18;0.00;102943.50;5079329;28;20084;-70
2021/10/04 06:05:08;;;;;;;4.40;1.90;;;;;;;-145.18;0.00;102943.50;5079069;28;20048;-70
2021/10/04 06:07:34;;;;;;;5.40;2.23;;;;;;;-145.18;0.00;102943.50;5079496;28;20031;-70
2021/10/04 06:09:59;;;;;;;3.97;1.90;;;;;;;-145.18;0.00;102943.50;5079284;28;20177;-70
2021/10/04 06:12:28;;;;;;;5.37;2.07;;;;;;;-145.18;0.00;102943.50;5078447;28;20030;-70
2021/10/04 06:14:55;;;;;;;4.20;1.80;;;;;;;-145.18;0.00;102943.50;5078736;28;20178;-70
2021/10/04 06:17:21;;;;;;;9.13;2.10;;;;;;;-145.18;0.00;102943.50;5079596;28;20376;-70
2021/10/04 06:19:47;;;;;;;3.77;1.77;;;;;;;-145.18;0.00;102943.50;5078803;28;20028;-70
2021/10/04 06:22:12;;;;;;;4.40;1.87;;;;;;;-145.18;0.00;102943.50;5079463;28;20476;-70
2021/10/04 06:24:38;;;;;;;5.93;2.10;;;;;;;-145.18;0.00;102943.50;5079178;28;20084;-70
2021/10/04 06:27:03;;;;;;;8.53;2.33;;;;;;;-145.18;0.00;102943.50;5078794;28;20640;-70
2021/10/04 06:29:29;;;;;;;4.47;1.73;;;;;;;-145.18;0.00;102943.50;5079314;28;20383;-70
2021/10/04 06:31:54;;;;;;;4.67;1.93;;;;;;;-145.18;0.00;102943.50;5078996;28;20035;-70
2021/10/04 06:34:20;;;;;;;5.13;1.80;;;;;;;-145.18;0.00;102943.50;5078901;28;20051;-70
2021/10/04 06:36:45;;;;;;;5.43;2.10;;;;;;;-145.18;0.00;102943.50;5079029;28;20208;-70
2021/10/04 06:39:11;;;;;;;5.47;1.80;;;;;;;-145.18;0.00;102943.50;5079151;28;20069;-70
2021/10/04 06:41:41;;;;;;;4.73;1.83;;;;;;;-145.18;0.00;102943.50;5079102;28;20028;-70
2021/10/04 06:44:08;;;;;;;4.83;1.80;;;;;;;-145.18;0.00;102943.50;5078921;28;20077;-70
2021/10/04 06:46:34;;;;;;;3.50;1.50;;;;;;;-145.18;0.00;102943.50;5078731;28;20047;-70
2021/10/04 06:49:00;;;;;;;6.97;1.73;;;;;;;-145.18;0.00;102943.50;5078900;28;20032;-70
2021/10/04 06:51:26;;;;;;;5.57;1.70;;;;;;;-145.18;0.00;102943.50;5078905;28;20300;-70
2021/10/04 06:53:51;;;;;;;4.07;1.70;;;;;;;-145.18;0.00;102943.50;5078943;28;20326;-70
2021/10/04 06:56:17;;;;;;;3.87;1.47;;;;;;;-145.18;0.00;102943.50;5078499;28;20020;-70
2021/10/04 06:58:43;;;;;;;4.03;1.50;;;;;;;-145.18;0.00;102943.50;5078500;28;20063;-70
2021/10/04 07:01:08;;;;;;;4.80;1.60;;;;;;;-145.18;0.00;102943.50;5078398;28;20031;-70
2021/10/04 07:03:34;;;;;;;5.40;1.60;;;;;;;-145.18;0.00;102943.50;5078277;28;20052;-70
2021/10/04 07:06:00;;;;;;;4.57;1.60;;;;;;;-145.18;0.00;102943.50;5078240;28;20393;-70
2021/10/04 07:08:26;;;;;;;2.60;1.43;;;;;;;-145.18;0.00;102943.50;5077879;28;20028;-70
2021/10/04 07:10:52;;;;;;;6.27;1.90;;;;;;;-145.18;0.00;102943.50;5087066;28;20024;-70
2021/10/04 07:13:17;;;;;;;2.80;1.30;;;;;;;-145.18;0.00;102943.50;5078486;28;20066;-70
2021/10/04 07:15:43;;;;;;;4.63;1.60;;;;;;;-145.18;0.00;102943.50;5078697;28;20125;-70
2021/10/04 07:18:09;;;;;;;3.27;1.53;;;;;;;-145.18;0.00;102943.50;5085826;28;20032;-70
2021/10/04 07:20:34;;;;;;;4.00;1.40;;;;;;;-145.18;0.00;102943.50;5078741;28;20062;-70
2021/10/04 07:23:00;;;;;;;3.63;1.50;;;;;;;-145.18;0.00;102943.50;5079214;28;20408;-70
2021/10/04 07:25:26;;;;;;;4.03;1.37;;;;;;;-145.18;0.00;102943.50;5087940;28;20281;-70
2021/10/04 07:27:52;;;;;;;5.13;1.70;;;;;;;-145.18;0.00;102943.50;5081973;28;20434;-70
2021/10/04 07:30:21;;;;;;;3.10;1.30;;;;;;;-145.18;0.00;102943.50;5082361;28;20328;-70
2021/10/04 07:32:50;;;;;;;4.73;1.60;;;;;;;-145.18;0.00;102943.50;5082136;28;20058;-70
2021/10/04 07:35:16;;;;;;;2.87;1.50;;;;;;;-145.18;0.00;102943.50;5082256;28;20047;-70
2021/10/04 07:37:42;;;;;;;3.30;1.30;;;;;;;-145.18;0.00;102943.50;5081891;28;20314;-70
2021/10/04 07:40:10;;;;;;;3.00;1.30;;;;;;;-145.18;0.00;102943.50;5082097;28;20110;-70
2021/10/04 07:42:36;;;;;;;5.60;1.20;;;;;;;-145.18;0.00;102943.50;5093411;28;20023;-70
2021/10/04 07:45:02;;;;;;;6.40;1.40;;;;;;;-145.18;0.00;102943.50;5083039;28;20028;-71
2021/10/04 07:47:28;;;;;;;2.50;1.30;;;;;;;-145.18;0.00;102943.50;5082272;28;20095;-70
2021/10/04 07:49:53;;;;;;;4.77;1.60;;;;;;;-145.18;0.00;102943.50;5081735;28;20107;-70
2021/10/04 07:52:19;;;;;;;2.93;1.13;;;;;;;-145.18;0.00;102943.50;5092624;28;20074;-70
2021/10/04 07:54:44;;;;;;;3.77;1.17;;;;;;;-145.18;0.00;102943.50;5085254;28;20024;-70
2021/10/04 07:57:13;;;;;;;5.07;1.60;;;;;;;-145.18;0.00;102943.50;5081793;28;20110;-70
2021/10/04 07:59:40;;;;;;;5.63;1.20;;;;;;;-145.18;0.00;102943.50;5081529;28;20024;-70
2021/10/04 08:02:07;;;;;;;4.23;1.10;;;;;;;-145.18;0.00;102943.50;5081924;28;20312;-70
2021/10/04 08:04:32;;;;;;;4.97;1.40;;;;;;;-145.18;0.00;102943.50;5081612;28;20561;-70
2021/10/04 08:06:58;;;;;;;3.67;1.20;;;;;;;-145.18;0.00;102943.50;5082000;28;20145;-70
2021/10/04 08:09:24;;;;;;;4.90;1.10;;;;;;;-145.18;0.00;102943.50;5084181;28;20488;-70
2021/10/04 08:11:49;;;;;;;2.97;1.13;;;;;;;-145.18;0.00;102943.50;5081864;28;20028;-70
2021/10/04 08:14:15;;;;;;;1.70;0.90;;;;;;;-145.18;0.00;102943.50;5081434;28;20511;-70
2021/10/04 08:16:41;;;;;;;4.33;1.10;;;;;;;-145.18;0.00;102943.50;5081710;28;20049;-70
2021/10/04 08:19:06;;;;;;;5.43;1.30;;;;;;;-145.18;0.00;102943.50;5081007;28;20028;-70
2021/10/04 08:21:32;;;;;;;15.13;1.10;;;;;;;-145.18;0.00;102943.50;5081623;28;20361;-70
2021/10/04 08:23:59;;;;;;;1.73;0.90;;;;;;;-145.18;0.00;102943.50;5081405;28;20492;-70
2021/10/04 08:26:25;;;;;;;6.57;1.40;;;;;;;-145.18;0.00;102943.50;5081685;28;20093;-70
2021/10/04 08:28:51;;;;;;;5.47;1.10;;;;;;;-145.18;0.00;102943.50;5081025;28;20182;-70
2021/10/04 08:31:16;;;;;;;4.60;1.10;;;;;;;-145.18;0.00;102943.50;5081547;28;20027;-70
2021/10/04 08:33:45;;;;;;;3.43;1.03;;;;;;;-145.18;0.00;102943.50;5081301;28;20115;-70
2021/10/04 08:36:11;;;;;;;6.40;1.10;;;;;;;-145.18;0.00;102943.50;5080358;28;20107;-70
2021/10/04 08:38:37;;;;;;;2.03;1.00;;;;;;;-145.18;0.00;102943.50;5081281;28;20032;-70
2021/10/04 08:41:03;;;;;;;2.63;1.10;;;;;;;-145.18;0.00;102943.50;5092208;28;20492;-70
2021/10/04 08:43:29;;;;;;;3.60;1.40;;;;;;;-145.18;0.00;102943.50;5094832;28;20023;-70
2021/10/04 08:45:57;;;;;;;2.30;1.10;;;;;;;-145.18;0.00;102943.50;5081314;28;20427;-69
2021/10/04 08:48:25;;;;;;;3.13;1.00;;;;;;;-145.18;0.00;102943.50;5080899;28;20392;-70
2021/10/04 08:50:50;;;;;;;1.97;1.00;;;;;;;-145.18;0.00;102943.50;5080382;28;20024;-70
2021/10/04 08:53:17;;;;;;;2.03;1.20;;;;;;;-145.18;0.00;102943.50;5080565;28;20038;-69
2021/10/04 08:55:42;;;;;;;2.60;0.93;;;;;;;-145.18;0.00;102943.50;5080645;28;20338;-69
2021/10/04 08:58:10;;;;;;;3.60;1.20;;;;;;;-145.18;0.00;102943.50;5080898;28;20516;-70
2021/10/04 09:00:36;;;;;;;2.47;0.97;;;;;;;-145.18;0.00;102943.50;5080471;28;20085;-70
2021/10/04 09:03:02;;;;;;;3.90;1.00;;;;;;;-145.18;0.00;102943.50;5080678;28;20119;-69
2021/10/04 09:05:28;;;;;;;2.40;1.13;;;;;;;-145.18;0.00;102943.50;5081036;28;20310;-69
2021/10/04 09:07:59;;;;;;;5.13;1.20;;;;;;;-145.18;0.00;102943.50;5080597;28;20256;-70
2021/10/04 09:10:30;;;;;;;3.87;1.10;;;;;;;-145.18;0.00;102943.50;5080399;28;20032;-69
2021/10/04 09:13:00;;;;;;;2.47;0.93;;;;;;;-145.18;0.00;102943.50;5080474;28;20407;-69
2021/10/04 09:15:46;;;;;;;4.50;1.40;;;;;;;-145.18;0.00;102943.50;5080809;28;20093;-69
2021/10/04 09:18:31;;;;;;;2.10;1.00;;;;;;;-145.18;0.00;102943.50;5084054;28;20171;-69
2021/10/04 09:21:09;;;;;;;2.17;0.90;;;;;;;-145.18;0.00;102943.50;5080020;28;20016;-70
2021/10/04 09:23:44;;;;;;;4.57;1.00;;;;;;;-145.18;0.00;102943.50;5080491;28;20120;-70
2021/10/04 09:26:38;;;;;;;2.37;0.90;;;;;;;-145.18;0.00;102943.50;5080522;28;20048;-69
2021/10/04 09:29:06;;;;;;;4.57;1.17;;;;;;;-145.18;0.00;102943.50;5080599;28;20621;-69
2021/10/04 09:31:40;;;;;;;2.43;0.90;;;;;;;-145.18;0.00;102943.50;5080000;28;20028;-69
2021/10/04 09:34:18;;;;;;;7.93;2.20;;;;;;;-145.18;0.00;102943.50;5080188;28;20031;-69
2021/10/04 09:36:53;;;;;;;2.53;1.00;;;;;;;-145.18;0.00;102943.50;5080272;28;20097;-69
2021/10/04 09:39:36;;;;;;;1.63;0.90;;;;;;;-145.18;0.00;102943.50;5079922;28;20178;-69
2021/10/04 09:42:18;;;;;;;2.73;1.13;;;;;;;-145.18;0.00;102943.50;5079639;28;20683;-70
2021/10/04 09:45:11;;;;;;;2.90;1.27;;;;;;;-145.18;0.00;102943.50;5076030;28;20037;-70
2021/10/04 09:47:39;;;;;;;4.63;1.07;;;;;;;-145.18;0.00;102943.50;5076785;28;20266;-70
2021/10/04 09:50:31;;;;;;;1.13;0.70;;;;;;;-145.18;0.00;102943.50;5079227;28;20044;-70
2021/10/04 09:53:01;;;;;;;4.47;1.00;;;;;;;-145.18;0.00;102943.50;5075960;28;20056;-70
2021/10/04 09:55:40;;;;;;;3.07;1.00;;;;;;;-145.18;0.00;102943.50;5080295;28;20032;-69
2021/10/04 09:58:21;;;;;;;2.20;0.90;;;;;;;-145.18;0.00;102943.50;5079475;28;20114;-69
2021/10/04 10:00:59;;;;;;;1.53;0.83;;;;;;;-145.18;0.00;102943.50;5080020;28;20046;-70
2021/10/04 10:03:39;;;;;;;2.67;1.00;;;;;;;-145.18;0.00;102943.50;5079371;28;20081;-69
2021/10/04 10:06:05;;;;;;;2.07;1.17;;;;;;;-145.18;0.00;102943.50;5079769;28;20512;-69
2021/10/04 10:08:31;;;;;;;3.83;0.90;;;;;;;-145.18;0.00;102943.50;5079701;28;20778;-69
2021/10/04 10:11:00;;;;;;;2.60;0.90;;;;;;;-145.18;0.00;102943.50;5079843;28;20289;-70
2021/10/04 10:13:27;;;;;;;3.07;0.80;;;;;;;-145.18;0.00;102943.50;5079301;28;20023;-70
2021/10/04 10:16:27;;;;;;;3.03;0.90;;;;;;;-145.18;0.00;102943.50;5079905;28;20035;-70
2021/10/04 10:19:03;;;;;;;1.93;0.90;;;;;;;-145.18;0.00;102943.50;5079401;28;20028;-70
2021/10/04 10:21:31;;;;;;;2.80;1.10;;;;;;;-145.18;0.00;102943.50;5079637;28;20265;-70
2021/10/04 10:24:07;;;;;;;2.70;0.97;;;;;;;-145.18;0.00;102943.50;5079121;28;20262;-70
2021/10/04 10:27:08;;;;;;;2.00;0.87;;;;;;;-145.18;0.00;102943.50;5079314;28;20222;-70
2021/10/04 10:29:35;;;;;;;2.27;1.00;;;;;;;-145.18;0.00;102943.50;4996785;28;20041;-70
2021/10/04 10:32:15;;;;;;;2.40;0.90;;;;;;;-145.18;0.00;102943.50;4996729;28;20254;-69
2021/10/04 10:34:50;;;;;;;3.47;1.10;;;;;;;-145.18;0.00;102943.50;4995962;28;20390;-70
2021/10/04 10:37:23;;;;;;;2.83;0.83;;;;;;;-145.18;0.00;102943.50;4996855;28;20088;-70
2021/10/04 10:39:59;;;;;;;4.77;1.00;;;;;;;-145.18;0.00;102943.50;4996219;28;20033;-70
2021/10/04 10:42:41;;;;;;;2.93;0.90;;;;;;;-145.18;0.00;102943.50;4997646;28;20842;-70
2021/10/04 10:45:16;;;;;;;2.42;0.82;;;;;;;-145.18;0.00;102943.50;4995853;28;20042;-70
2021/10/04 10:47:52;;;;;;;2.53;0.80;;;;;;;-145.18;0.00;102943.50;4996191;28;20026;-70
2021/10/04 10:50:58;;;;;;;1.63;0.80;;;;;;;-145.18;0.00;102943.50;4995018;28;20042;-70
2021/10/04 10:53:29;;;;;;;2.13;0.67;;;;;;;-145.18;0.00;102943.50;4991510;28;20057;-70
2021/10/04 10:55:57;;;;;;;3.17;1.00;;;;;;;-145.18;0.00;102943.50;4991250;28;20192;-70
2021/10/04 10:58:28;;;;;;;2.90;1.00;;;;;;;-145.18;0.00;102943.50;4994568;28;20083;-70
2021/10/04 11:01:16;;;;;;;3.30;0.90;;;;;;;-145.18;0.00;102943.50;4995949;28;20422;-70
2021/10/04 11:03:50;;;;;;;3.57;1.00;;;;;;;-145.18;0.00;102943.50;5034185;28;20241;-69
2021/10/04 11:06:16;;;;;;;1.97;0.87;;;;;;;-145.18;0.00;102943.50;5070119;28;20207;-70
2021/10/04 11:08:59;;;;;;;3.20;0.90;;;;;;;-145.18;0.00;102943.50;5078068;28;20027;-70
2021/10/04 11:11:25;;;;;;;2.20;0.90;;;;;;;-145.18;0.00;102943.50;5076934;28;20438;-70
2021/10/04 11:14:23;;;;;;;1.63;0.70;;;;;;;-145.18;0.00;102943.50;5078632;28;20242;-70
2021/10/04 11:17:00;;;;;;;3.33;0.90;;;;;;;-145.18;0.00;102943.50;5035571;28;20910;-70
2021/10/04 11:19:29;;;;;;;3.33;0.80;;;;;;;-145.18;0.00;102943.50;5072837;28;20350;-70
2021/10/04 11:21:58;;;;;;;2.97;1.27;;;;;;;-145.18;0.00;102943.50;5071638;28;20258;-70